sensor_id;sensor_type;location;lat;lon;timestamp;temperature;humidity
43346;DHT22;28937;51.160;4.146;2023-04-01T00:00:16;15.20;99.90
43346;DHT22;28937;51.160;4.146;2023-04-01T00:02:42;15.20;99.90
43346;DHT22;28937;51.160;4.146;2023-04-01T00:05:08;15.20;99.90
43346;DHT22;28937;51.160;4.146;2023-04-01T00:07:39;15.20;99.90
43346;DHT22;28937;51.160;4.146;2023-04-01T00:10:07;15.20;99.90
43346;DHT22;28937;51.160;4.146;2023-04-01T00:12:33;15.10;99.90
43346;DHT22;28937;51.160;4.146;2023-04-01T00:14:58;15.10;99.90
43346;DHT22;28937;51.160;4.146;2023-04-01T00:17:24;15.10;99.90
43346;DHT22;28937;51.160;4.146;2023-04-01T00:19:50;15.10;99.90
43346;DHT22;28937;51.160;4.146;2023-04-01T00:22:15;15.10;99.90
43346;DHT22;28937;51.160;4.146;2023-04-01T00:24:42;15.10;99.90
43346;DHT22;28937;51.160;4.146;2023-04-01T00:27:07;15.10;99.90
43346;DHT22;28937;51.160;4.146;2023-04-01T00:29:34;15.10;99.90
43346;DHT22;28937;51.160;4.146;2023-04-01T00:32:00;15.10;99.90
43346;DHT22;28937;51.160;4.146;2023-04-01T00:34:25;15.10;99.90
43346;DHT22;28937;51.160;4.146;2023-04-01T00:36:51;15.00;99.90
43346;DHT22;28937;51.160;4.146;2023-04-01T00:39:19;15.00;99.90
43346;DHT22;28937;51.160;4.146;2023-04-01T00:41:44;14.90;99.90
43346;DHT22;28937;51.160;4.146;2023-04-01T00:44:28;14.90;99.90
43346;DHT22;28937;51.160;4.146;2023-04-01T00:46:54;14.90;99.90
43346;DHT22;28937;51.160;4.146;2023-04-01T00:49:23;14.90;99.90
43346;DHT22;28937;51.160;4.146;2023-04-01T00:51:53;14.90;99.90
43346;DHT22;28937;51.160;4.146;2023-04-01T00:54:20;14.90;99.90
43346;DHT22;28937;51.160;4.146;2023-04-01T00:56:49;14.90;99.90
43346;DHT22;28937;51.160;4.146;2023-04-01T00:59:25;14.90;99.90
43346;DHT22;28937;51.160;4.146;2023-04-01T01:01:51;14.90;99.90
43346;DHT22;28937;51.160;4.146;2023-04-01T01:04:28;14.80;99.90
43346;DHT22;28937;51.160;4.146;2023-04-01T01:07:20;14.80;99.90
43346;DHT22;28937;51.160;4.146;2023-04-01T01:10:16;14.80;99.90
43346;DHT22;28937;51.160;4.146;2023-04-01T01:15:41;14.70;99.90
43346;DHT22;28937;51.160;4.146;2023-04-01T01:18:19;14.80;99.90
43346;DHT22;28937;51.160;4.146;2023-04-01T01:21:21;14.70;99.90
43346;DHT22;28937;51.160;4.146;2023-04-01T01:32:34;14.60;99.90
43346;DHT22;28937;51.160;4.146;2023-04-01T01:35:20;14.60;99.90
43346;DHT22;28937;51.160;4.146;2023-04-01T01:37:47;14.60;99.90
43346;DHT22;28937;51.160;4.146;2023-04-01T01:40:16;14.60;99.90
43346;DHT22;28937;51.160;4.146;2023-04-01T01:42:46;14.60;99.90
43346;DHT22;28937;51.160;4.146;2023-04-01T01:45:14;14.60;99.90
43346;DHT22;28937;51.160;4.146;2023-04-01T01:47:43;14.70;99.90
43346;DHT22;28937;51.160;4.146;2023-04-01T01:50:11;14.70;99.90
43346;DHT22;28937;51.160;4.146;2023-04-01T01:52:37;14.70;99.90
43346;DHT22;28937;51.160;4.146;2023-04-01T01:55:03;14.60;99.90
43346;DHT22;28937;51.160;4.146;2023-04-01T01:57:32;14.60;99.90
43346;DHT22;28937;51.160;4.146;2023-04-01T02:00:03;14.60;99.90
43346;DHT22;28937;51.160;4.146;2023-04-01T02:02:39;14.60;99.90
43346;DHT22;28937;51.160;4.146;2023-04-01T02:05:06;14.60;99.90
43346;DHT22;28937;51.160;4.146;2023-04-01T02:07:35;14.60;99.90
43346;DHT22;28937;51.160;4.146;2023-04-01T02:10:01;14.50;99.90
43346;DHT22;28937;51.160;4.146;2023-04-01T02:12:28;14.60;99.90
43346;DHT22;28937;51.160;4.146;2023-04-01T02:15:05;14.60;99.90
43346;DHT22;28937;51.160;4.146;2023-04-01T02:17:33;14.60;99.90
43346;DHT22;28937;51.160;4.146;2023-04-01T02:20:09;14.50;99.90
43346;DHT22;28937;51.160;4.146;2023-04-01T02:22:47;14.50;99.90
43346;DHT22;28937;51.160;4.146;2023-04-01T02:25:17;14.60;99.90
43346;DHT22;28937;51.160;4.146;2023-04-01T02:27:44;14.50;99.90
43346;DHT22;28937;51.160;4.146;2023-04-01T02:30:12;14.50;99.90
43346;DHT22;28937;51.160;4.146;2023-04-01T02:32:38;14.50;99.90
43346;DHT22;28937;51.160;4.146;2023-04-01T02:35:09;14.60;99.90
43346;DHT22;28937;51.160;4.146;2023-04-01T02:37:37;14.50;99.90
43346;DHT22;28937;51.160;4.146;2023-04-01T02:40:05;14.50;99.90
43346;DHT22;28937;51.160;4.146;2023-04-01T02:42:35;14.50;99.90
43346;DHT22;28937;51.160;4.146;2023-04-01T02:45:01;14.50;99.90
43346;DHT22;28937;51.160;4.146;2023-04-01T02:47:26;14.50;99.90
43346;DHT22;28937;51.160;4.146;2023-04-01T02:49:53;14.50;99.90
43346;DHT22;28937;51.160;4.146;2023-04-01T02:52:27;14.40;99.90
43346;DHT22;28937;51.160;4.146;2023-04-01T02:54:54;14.40;99.90
43346;DHT22;28937;51.160;4.146;2023-04-01T02:57:20;14.40;99.90
43346;DHT22;28937;51.160;4.146;2023-04-01T02:59:46;14.40;99.90
43346;DHT22;28937;51.160;4.146;2023-04-01T03:02:12;14.40;99.90
43346;DHT22;28937;51.160;4.146;2023-04-01T03:04:37;14.40;99.90
43346;DHT22;28937;51.160;4.146;2023-04-01T03:07:03;14.40;99.90
43346;DHT22;28937;51.160;4.146;2023-04-01T03:09:29;14.40;99.90
43346;DHT22;28937;51.160;4.146;2023-04-01T03:11:55;14.40;99.90
43346;DHT22;28937;51.160;4.146;2023-04-01T03:14:21;14.40;99.90
43346;DHT22;28937;51.160;4.146;2023-04-01T03:16:46;14.30;99.90
43346;DHT22;28937;51.160;4.146;2023-04-01T03:19:12;14.40;99.90
43346;DHT22;28937;51.160;4.146;2023-04-01T03:21:37;14.30;99.90
43346;DHT22;28937;51.160;4.146;2023-04-01T03:24:03;14.30;99.90
43346;DHT22;28937;51.160;4.146;2023-04-01T03:26:29;14.30;99.90
43346;DHT22;28937;51.160;4.146;2023-04-01T03:28:55;14.20;99.90
43346;DHT22;28937;51.160;4.146;2023-04-01T03:31:21;14.30;99.90
43346;DHT22;28937;51.160;4.146;2023-04-01T03:33:46;14.30;99.90
43346;DHT22;28937;51.160;4.146;2023-04-01T03:36:12;14.30;99.90
43346;DHT22;28937;51.160;4.146;2023-04-01T03:38:40;14.30;99.90
43346;DHT22;28937;51.160;4.146;2023-04-01T03:41:06;14.30;99.90
43346;DHT22;28937;51.160;4.146;2023-04-01T03:43:32;14.20;99.90
43346;DHT22;28937;51.160;4.146;2023-04-01T03:45:58;14.20;99.90
43346;DHT22;28937;51.160;4.146;2023-04-01T03:48:24;14.20;99.90
43346;DHT22;28937;51.160;4.146;2023-04-01T03:50:51;14.20;99.90
43346;DHT22;28937;51.160;4.146;2023-04-01T03:53:17;14.20;99.90
43346;DHT22;28937;51.160;4.146;2023-04-01T03:55:42;14.20;99.90
43346;DHT22;28937;51.160;4.146;2023-04-01T03:58:08;14.20;99.90
43346;DHT22;28937;51.160;4.146;2023-04-01T04:00:34;14.20;99.90
43346;DHT22;28937;51.160;4.146;2023-04-01T04:03:00;14.20;99.90
43346;DHT22;28937;51.160;4.146;2023-04-01T04:05:26;14.20;99.90
43346;DHT22;28937;51.160;4.146;2023-04-01T04:07:52;14.20;99.90
43346;DHT22;28937;51.160;4.146;2023-04-01T04:10:19;14.20;99.90
43346;DHT22;28937;51.160;4.146;2023-04-01T04:12:45;14.20;99.90
43346;DHT22;28937;51.160;4.146;2023-04-01T04:15:11;14.20;99.90
43346;DHT22;28937;51.160;4.146;2023-04-01T04:17:37;14.20;99.90
43346;DHT22;28937;51.160;4.146;2023-04-01T04:20:03;14.20;99.90
43346;DHT22;28937;51.160;4.146;2023-04-01T04:22:29;14.20;99.90
43346;DHT22;28937;51.160;4.146;2023-04-01T04:24:54;14.20;99.90
43346;DHT22;28937;51.160;4.146;2023-04-01T04:27:20;14.20;99.90
43346;DHT22;28937;51.160;4.146;2023-04-01T04:29:46;14.20;99.90
43346;DHT22;28937;51.160;4.146;2023-04-01T04:32:11;14.20;99.90
43346;DHT22;28937;51.160;4.146;2023-04-01T04:34:37;14.20;99.90
43346;DHT22;28937;51.160;4.146;2023-04-01T04:37:03;14.10;99.90
43346;DHT22;28937;51.160;4.146;2023-04-01T04:39:28;14.20;99.90
43346;DHT22;28937;51.160;4.146;2023-04-01T04:41:54;14.20;99.90
43346;DHT22;28937;51.160;4.146;2023-04-01T04:44:20;14.20;99.90
43346;DHT22;28937;51.160;4.146;2023-04-01T04:46:45;14.20;99.90
43346;DHT22;28937;51.160;4.146;2023-04-01T04:49:11;14.10;99.90
43346;DHT22;28937;51.160;4.146;2023-04-01T04:51:36;14.20;99.90
43346;DHT22;28937;51.160;4.146;2023-04-01T04:54:03;14.10;99.90
43346;DHT22;28937;51.160;4.146;2023-04-01T04:56:29;14.10;99.90
43346;DHT22;28937;51.160;4.146;2023-04-01T04:58:56;14.10;99.90
43346;DHT22;28937;51.160;4.146;2023-04-01T05:01:22;14.10;99.90
43346;DHT22;28937;51.160;4.146;2023-04-01T05:03:47;14.10;99.90
43346;DHT22;28937;51.160;4.146;2023-04-01T05:06:14;14.10;99.90
43346;DHT22;28937;51.160;4.146;2023-04-01T05:08:41;14.10;99.90
43346;DHT22;28937;51.160;4.146;2023-04-01T05:11:11;14.10;99.90
43346;DHT22;28937;51.160;4.146;2023-04-01T05:13:38;14.10;99.90
43346;DHT22;28937;51.160;4.146;2023-04-01T05:16:08;14.10;99.90
43346;DHT22;28937;51.160;4.146;2023-04-01T05:18:34;14.10;99.90
43346;DHT22;28937;51.160;4.146;2023-04-01T05:20:59;14.10;99.90
43346;DHT22;28937;51.160;4.146;2023-04-01T05:23:25;14.00;99.90
43346;DHT22;28937;51.160;4.146;2023-04-01T05:25:51;14.10;99.90
43346;DHT22;28937;51.160;4.146;2023-04-01T05:28:19;14.00;99.90
43346;DHT22;28937;51.160;4.146;2023-04-01T05:30:45;14.00;99.90
43346;DHT22;28937;51.160;4.146;2023-04-01T05:33:12;14.00;99.90
43346;DHT22;28937;51.160;4.146;2023-04-01T05:35:38;14.00;99.90
43346;DHT22;28937;51.160;4.146;2023-04-01T05:38:05;14.00;99.90
43346;DHT22;28937;51.160;4.146;2023-04-01T05:40:31;13.90;99.90
43346;DHT22;28937;51.160;4.146;2023-04-01T05:42:56;14.00;99.90
43346;DHT22;28937;51.160;4.146;2023-04-01T05:45:22;14.00;99.90
43346;DHT22;28937;51.160;4.146;2023-04-01T05:47:48;14.00;99.90
43346;DHT22;28937;51.160;4.146;2023-04-01T05:50:13;13.90;99.90
43346;DHT22;28937;51.160;4.146;2023-04-01T05:52:39;13.90;99.90
43346;DHT22;28937;51.160;4.146;2023-04-01T05:55:05;13.90;99.90
43346;DHT22;28937;51.160;4.146;2023-04-01T05:57:31;13.90;99.90
43346;DHT22;28937;51.160;4.146;2023-04-01T05:59:57;13.90;99.90
43346;DHT22;28937;51.160;4.146;2023-04-01T06:02:23;13.80;99.90
43346;DHT22;28937;51.160;4.146;2023-04-01T06:04:49;13.90;99.90
43346;DHT22;28937;51.160;4.146;2023-04-01T06:07:16;14.00;99.90
43346;DHT22;28937;51.160;4.146;2023-04-01T06:09:43;14.10;99.90
43346;DHT22;28937;51.160;4.146;2023-04-01T06:15:26;14.30;99.90
43346;DHT22;28937;51.160;4.146;2023-04-01T06:21:12;14.40;99.90
43346;DHT22;28937;51.160;4.146;2023-04-01T06:24:05;14.40;99.90
43346;DHT22;28937;51.160;4.146;2023-04-01T06:26:40;14.40;99.90
43346;DHT22;28937;51.160;4.146;2023-04-01T06:29:19;14.50;99.90
43346;DHT22;28937;51.160;4.146;2023-04-01T06:34:34;14.50;99.90
43346;DHT22;28937;51.160;4.146;2023-04-01T06:37:35;14.50;99.90
43346;DHT22;28937;51.160;4.146;2023-04-01T06:40:41;14.50;99.90
43346;DHT22;28937;51.160;4.146;2023-04-01T06:48:32;14.50;99.90
43346;DHT22;28937;51.160;4.146;2023-04-01T06:51:07;14.50;99.90
43346;DHT22;28937;51.160;4.146;2023-04-01T06:56:09;14.50;99.90
43346;DHT22;28937;51.160;4.146;2023-04-01T06:58:39;14.60;99.90
43346;DHT22;28937;51.160;4.146;2023-04-01T07:01:10;14.60;99.90
43346;DHT22;28937;51.160;4.146;2023-04-01T07:03:49;14.70;99.90
43346;DHT22;28937;51.160;4.146;2023-04-01T07:09:12;14.70;99.90
43346;DHT22;28937;51.160;4.146;2023-04-01T07:11:40;14.60;99.90
43346;DHT22;28937;51.160;4.146;2023-04-01T07:16:51;14.60;99.90
43346;DHT22;28937;51.160;4.146;2023-04-01T07:19:29;14.60;99.90
43346;DHT22;28937;51.160;4.146;2023-04-01T07:22:14;14.60;99.90
43346;DHT22;28937;51.160;4.146;2023-04-01T07:24:45;14.70;99.90
43346;DHT22;28937;51.160;4.146;2023-04-01T07:27:13;14.70;99.90
43346;DHT22;28937;51.160;4.146;2023-04-01T07:29:39;14.60;99.90
43346;DHT22;28937;51.160;4.146;2023-04-01T07:37:57;14.60;99.90
43346;DHT22;28937;51.160;4.146;2023-04-01T07:41:04;14.70;99.90
43346;DHT22;28937;51.160;4.146;2023-04-01T07:46:34;14.70;99.90
43346;DHT22;28937;51.160;4.146;2023-04-01T07:49:30;14.70;99.90
43346;DHT22;28937;51.160;4.146;2023-04-01T07:51:56;14.70;99.90
43346;DHT22;28937;51.160;4.146;2023-04-01T07:54:45;14.70;99.90
43346;DHT22;28937;51.160;4.146;2023-04-01T07:57:27;14.70;99.90
43346;DHT22;28937;51.160;4.146;2023-04-01T08:05:55;14.60;99.90
43346;DHT22;28937;51.160;4.146;2023-04-01T08:14:01;14.60;99.90
43346;DHT22;28937;51.160;4.146;2023-04-01T08:16:35;14.60;99.90
43346;DHT22;28937;51.160;4.146;2023-04-01T08:19:19;14.60;99.90
43346;DHT22;28937;51.160;4.146;2023-04-01T08:21:52;14.50;99.90
43346;DHT22;28937;51.160;4.146;2023-04-01T08:26:55;14.60;99.90
43346;DHT22;28937;51.160;4.146;2023-04-01T08:29:25;14.60;99.90
43346;DHT22;28937;51.160;4.146;2023-04-01T08:31:56;14.50;99.90
43346;DHT22;28937;51.160;4.146;2023-04-01T08:34:32;14.50;99.90
43346;DHT22;28937;51.160;4.146;2023-04-01T08:37:17;14.50;99.90
43346;DHT22;28937;51.160;4.146;2023-04-01T08:39:54;14.40;99.90
43346;DHT22;28937;51.160;4.146;2023-04-01T08:59:38;14.70;99.90
43346;DHT22;28937;51.160;4.146;2023-04-01T09:02:39;14.70;99.90
43346;DHT22;28937;51.160;4.146;2023-04-01T09:22:21;14.80;99.90
43346;DHT22;28937;51.160;4.146;2023-04-01T09:31:05;14.80;99.90
43346;DHT22;28937;51.160;4.146;2023-04-01T09:33:55;14.90;99.90
43346;DHT22;28937;51.160;4.146;2023-04-01T09:36:38;14.90;99.90
43346;DHT22;28937;51.160;4.146;2023-04-01T09:42:25;14.90;99.90
43346;DHT22;28937;51.160;4.146;2023-04-01T09:45:04;15.00;99.90
43346;DHT22;28937;51.160;4.146;2023-04-01T10:08:11;15.00;99.90
43346;DHT22;28937;51.160;4.146;2023-04-01T10:11:09;15.10;99.90
43346;DHT22;28937;51.160;4.146;2023-04-01T10:28:37;15.10;99.90
43346;DHT22;28937;51.160;4.146;2023-04-01T10:36:35;15.10;99.90
43346;DHT22;28937;51.160;4.146;2023-04-01T10:56:15;15.70;99.90
43346;DHT22;28937;51.160;4.146;2023-04-01T11:33:36;15.00;99.90
43346;DHT22;28937;51.160;4.146;2023-04-01T11:39:02;15.00;99.90
43346;DHT22;28937;51.160;4.146;2023-04-01T11:44:20;15.10;99.90
43346;DHT22;28937;51.160;4.146;2023-04-01T11:47:07;15.40;99.90
43346;DHT22;28937;51.160;4.146;2023-04-01T11:55:35;15.70;99.90
43346;DHT22;28937;51.160;4.146;2023-04-01T12:01:23;15.90;99.90
43346;DHT22;28937;51.160;4.146;2023-04-01T12:14:43;16.00;99.90
43346;DHT22;28937;51.160;4.146;2023-04-01T12:17:21;16.00;99.90
43346;DHT22;28937;51.160;4.146;2023-04-01T12:20:26;16.00;99.90
43346;DHT22;28937;51.160;4.146;2023-04-01T12:23:33;15.90;99.90
43346;DHT22;28937;51.160;4.146;2023-04-01T12:29:19;16.20;99.90
43346;DHT22;28937;51.160;4.146;2023-04-01T12:32:09;16.00;99.90
43346;DHT22;28937;51.160;4.146;2023-04-01T12:48:31;15.90;99.90
43346;DHT22;28937;51.160;4.146;2023-04-01T12:59:54;15.70;99.90
43346;DHT22;28937;51.160;4.146;2023-04-01T13:02:10;15.20;99.90
43346;DHT22;28937;51.160;4.146;2023-04-01T13:11:07;15.10;99.90
43346;DHT22;28937;51.160;4.146;2023-04-01T13:16:38;15.10;99.90
43346;DHT22;28937;51.160;4.146;2023-04-01T13:19:21;14.80;99.90
43346;DHT22;28937;51.160;4.146;2023-04-01T13:24:51;14.90;99.90
43346;DHT22;28937;51.160;4.146;2023-04-01T13:27:34;15.20;99.90
43346;DHT22;28937;51.160;4.146;2023-04-01T13:32:44;15.70;99.90
43346;DHT22;28937;51.160;4.146;2023-04-01T13:35:26;15.80;99.90
43346;DHT22;28937;51.160;4.146;2023-04-01T13:40:54;15.50;99.90
43346;DHT22;28937;51.160;4.146;2023-04-01T13:43:31;14.90;99.90
43346;DHT22;28937;51.160;4.146;2023-04-01T13:54:25;14.80;99.90
43346;DHT22;28937;51.160;4.146;2023-04-01T14:02:49;15.40;99.90
43346;DHT22;28937;51.160;4.146;2023-04-01T14:05:49;15.40;99.90
43346;DHT22;28937;51.160;4.146;2023-04-01T14:08:32;15.10;99.90
43346;DHT22;28937;51.160;4.146;2023-04-01T14:11:13;14.90;99.90
43346;DHT22;28937;51.160;4.146;2023-04-01T14:22:12;14.50;99.90
43346;DHT22;28937;51.160;4.146;2023-04-01T14:33:14;16.00;99.90
43346;DHT22;28937;51.160;4.146;2023-04-01T14:36:49;15.70;99.90
43346;DHT22;28937;51.160;4.146;2023-04-01T14:47:28;16.00;99.90
43346;DHT22;28937;51.160;4.146;2023-04-01T14:50:18;15.90;99.90
43346;DHT22;28937;51.160;4.146;2023-04-01T14:53:11;16.00;99.90
43346;DHT22;28937;51.160;4.146;2023-04-01T15:01:06;16.10;99.90
43346;DHT22;28937;51.160;4.146;2023-04-01T15:03:40;15.80;99.90
43346;DHT22;28937;51.160;4.146;2023-04-01T15:12:13;15.50;99.90
43346;DHT22;28937;51.160;4.146;2023-04-01T15:15:14;15.70;99.90
43346;DHT22;28937;51.160;4.146;2023-04-01T15:20:50;15.30;99.90
43346;DHT22;28937;51.160;4.146;2023-04-01T15:23:45;15.40;99.90
43346;DHT22;28937;51.160;4.146;2023-04-01T15:29:19;15.50;99.90
43346;DHT22;28937;51.160;4.146;2023-04-01T15:31:55;15.70;99.90
43346;DHT22;28937;51.160;4.146;2023-04-01T15:42:26;14.80;99.90
43346;DHT22;28937;51.160;4.146;2023-04-01T15:47:35;15.40;99.90
43346;DHT22;28937;51.160;4.146;2023-04-01T15:56:06;15.80;99.90
43346;DHT22;28937;51.160;4.146;2023-04-01T15:58:54;15.90;99.90
43346;DHT22;28937;51.160;4.146;2023-04-01T16:01:43;15.90;99.90
43346;DHT22;28937;51.160;4.146;2023-04-01T16:04:55;15.90;99.90
43346;DHT22;28937;51.160;4.146;2023-04-01T16:21:37;15.90;99.90
43346;DHT22;28937;51.160;4.146;2023-04-01T16:45:57;15.90;99.90
43346;DHT22;28937;51.160;4.146;2023-04-01T16:51:23;15.90;99.80
43346;DHT22;28937;51.160;4.146;2023-04-01T16:54:16;15.80;99.70
43346;DHT22;28937;51.160;4.146;2023-04-01T16:56:47;15.70;99.70
43346;DHT22;28937;51.160;4.146;2023-04-01T17:04:54;15.70;99.60
43346;DHT22;28937;51.160;4.146;2023-04-01T17:15:36;15.70;99.30
43346;DHT22;28937;51.160;4.146;2023-04-01T17:18:36;15.70;99.30
43346;DHT22;28937;51.160;4.146;2023-04-01T17:21:13;15.60;99.50
43346;DHT22;28937;51.160;4.146;2023-04-01T17:26:38;15.60;99.40
43346;DHT22;28937;51.160;4.146;2023-04-01T17:29:34;15.60;99.30
43346;DHT22;28937;51.160;4.146;2023-04-01T17:32:11;15.60;99.20
43346;DHT22;28937;51.160;4.146;2023-04-01T17:40:35;15.60;99.40
43346;DHT22;28937;51.160;4.146;2023-04-01T17:46:05;15.50;98.80
43346;DHT22;28937;51.160;4.146;2023-04-01T17:48:38;15.50;98.90
43346;DHT22;28937;51.160;4.146;2023-04-01T17:59:37;15.40;98.90
43346;DHT22;28937;51.160;4.146;2023-04-01T18:07:45;15.30;99.30
43346;DHT22;28937;51.160;4.146;2023-04-01T18:10:35;15.30;99.50
43346;DHT22;28937;51.160;4.146;2023-04-01T18:19:07;15.20;99.50
43346;DHT22;28937;51.160;4.146;2023-04-01T18:21:47;15.30;99.20
43346;DHT22;28937;51.160;4.146;2023-04-01T18:24:40;15.30;99.00
43346;DHT22;28937;51.160;4.146;2023-04-01T18:27:18;15.30;99.30
43346;DHT22;28937;51.160;4.146;2023-04-01T18:29:50;15.30;99.90
43346;DHT22;28937;51.160;4.146;2023-04-01T18:32:37;15.20;99.90
43346;DHT22;28937;51.160;4.146;2023-04-01T18:35:44;15.30;99.70
43346;DHT22;28937;51.160;4.146;2023-04-01T18:41:19;15.10;99.90
43346;DHT22;28937;51.160;4.146;2023-04-01T18:44:03;15.20;99.90
43346;DHT22;28937;51.160;4.146;2023-04-01T18:46:49;15.20;99.80
43346;DHT22;28937;51.160;4.146;2023-04-01T18:57:50;15.10;99.90
43346;DHT22;28937;51.160;4.146;2023-04-01T19:00:36;15.10;99.90
43346;DHT22;28937;51.160;4.146;2023-04-01T19:05:59;15.10;99.90
43346;DHT22;28937;51.160;4.146;2023-04-01T19:08:35;15.10;99.90
43346;DHT22;28937;51.160;4.146;2023-04-01T19:11:22;15.00;99.90
43346;DHT22;28937;51.160;4.146;2023-04-01T19:28:01;15.10;99.90
43346;DHT22;28937;51.160;4.146;2023-04-01T19:30:58;15.00;99.90
43346;DHT22;28937;51.160;4.146;2023-04-01T19:36:26;15.00;99.90
43346;DHT22;28937;51.160;4.146;2023-04-01T19:39:19;15.00;99.90
43346;DHT22;28937;51.160;4.146;2023-04-01T19:41:46;15.00;99.90
43346;DHT22;28937;51.160;4.146;2023-04-01T19:52:20;15.00;99.90
43346;DHT22;28937;51.160;4.146;2023-04-01T19:55:01;14.90;99.90
43346;DHT22;28937;51.160;4.146;2023-04-01T19:57:51;14.90;99.90
43346;DHT22;28937;51.160;4.146;2023-04-01T20:03:15;14.90;99.90
43346;DHT22;28937;51.160;4.146;2023-04-01T20:05:51;14.90;99.90
43346;DHT22;28937;51.160;4.146;2023-04-01T20:08:36;15.00;99.90
43346;DHT22;28937;51.160;4.146;2023-04-01T20:11:18;14.90;99.90
43346;DHT22;28937;51.160;4.146;2023-04-01T20:16:51;14.90;99.90
43346;DHT22;28937;51.160;4.146;2023-04-01T20:19:35;14.90;99.90
43346;DHT22;28937;51.160;4.146;2023-04-01T20:22:08;14.90;99.90
43346;DHT22;28937;51.160;4.146;2023-04-01T20:24:42;15.00;99.90
43346;DHT22;28937;51.160;4.146;2023-04-01T20:32:45;14.90;99.90
43346;DHT22;28937;51.160;4.146;2023-04-01T20:40:49;14.80;99.90
43346;DHT22;28937;51.160;4.146;2023-04-01T20:51:31;14.90;99.90
43346;DHT22;28937;51.160;4.146;2023-04-01T21:00:27;14.80;99.90
43346;DHT22;28937;51.160;4.146;2023-04-01T21:08:25;14.90;99.90
43346;DHT22;28937;51.160;4.146;2023-04-01T21:11:00;14.90;99.90
43346;DHT22;28937;51.160;4.146;2023-04-01T21:24:00;14.70;99.90
43346;DHT22;28937;51.160;4.146;2023-04-01T21:31:50;14.70;99.90
43346;DHT22;28937;51.160;4.146;2023-04-01T21:34:40;14.70;99.90
43346;DHT22;28937;51.160;4.146;2023-04-01T21:53:29;14.70;99.90
43346;DHT22;28937;51.160;4.146;2023-04-01T22:01:57;14.70;99.90
43346;DHT22;28937;51.160;4.146;2023-04-01T22:07:21;14.60;99.90
43346;DHT22;28937;51.160;4.146;2023-04-01T22:17:54;14.60;99.90
43346;DHT22;28937;51.160;4.146;2023-04-01T22:23:31;14.60;99.90
43346;DHT22;28937;51.160;4.146;2023-04-01T22:26:19;14.60;99.90
43346;DHT22;28937;51.160;4.146;2023-04-01T22:29:07;14.60;99.90
43346;DHT22;28937;51.160;4.146;2023-04-01T22:31:44;14.60;99.90
43346;DHT22;28937;51.160;4.146;2023-04-01T22:34:26;14.60;99.90
43346;DHT22;28937;51.160;4.146;2023-04-01T22:37:21;14.50;99.90
43346;DHT22;28937;51.160;4.146;2023-04-01T22:50:43;14.50;99.50
43346;DHT22;28937;51.160;4.146;2023-04-01T22:53:38;14.50;99.70
43346;DHT22;28937;51.160;4.146;2023-04-01T22:56:15;14.50;99.50
43346;DHT22;28937;51.160;4.146;2023-04-01T22:59:15;14.50;99.60
43346;DHT22;28937;51.160;4.146;2023-04-01T23:01:57;14.50;99.70
43346;DHT22;28937;51.160;4.146;2023-04-01T23:04:31;14.40;99.80
43346;DHT22;28937;51.160;4.146;2023-04-01T23:07:00;14.40;99.40
43346;DHT22;28937;51.160;4.146;2023-04-01T23:09:32;14.40;99.50
43346;DHT22;28937;51.160;4.146;2023-04-01T23:12:08;14.40;99.50
43346;DHT22;28937;51.160;4.146;2023-04-01T23:14:49;14.40;99.10
43346;DHT22;28937;51.160;4.146;2023-04-01T23:22:34;14.40;98.80
43346;DHT22;28937;51.160;4.146;2023-04-01T23:28:14;14.30;99.20
43346;DHT22;28937;51.160;4.146;2023-04-01T23:38:35;14.30;99.50
43346;DHT22;28937;51.160;4.146;2023-04-01T23:41:02;14.30;99.10
43346;DHT22;28937;51.160;4.146;2023-04-01T23:43:56;14.20;99.20
43346;DHT22;28937;51.160;4.146;2023-04-01T23:46:22;14.30;99.20
43346;DHT22;28937;51.160;4.146;2023-04-01T23:48:50;14.20;99.30
43346;DHT22;28937;51.160;4.146;2023-04-01T23:51:22;14.20;99.10
43346;DHT22;28937;51.160;4.146;2023-04-01T23:54:01;14.20;99.20
43346;DHT22;28937;51.160;4.146;2023-04-01T23:56:46;14.20;98.80
43346;DHT22;28937;51.160;4.146;2023-04-01T23:59:18;14.20;98.80
